Saugus, MA (01906)

2:42 PM EDT on April 28, 2015 (GMT -0400)
East Side Melrose | | Change Station
CLOSE
Current Station
Personal Weather Station
Location: Melrose, MA
Elevation: 115 ft
Nearby Weather Stations

Elev 115 ft 42.46 °N, 71.05 °W | Updated 0 second ago

Partly Cloudy
Partly Cloudy
63.0 °F
Feels Like 63.0 °F
N
6.4
Wind Variable Wind from WNW
Gusts 10.4 mph

Today
High -- | Low -- °F
--% Chance of Precip.
Yesterday
High -- | Low -- °F
Precip. -- in
5:43 AM 7:40 PM
Waxing Gibbous, 75% visible
Pressure 29.70 in
Visibility 10.0 miles
Clouds Few 6000 ft
Scattered Clouds 20000 ft
Dew Point 33 °F
Humidity 32%
Rainfall 0.09 in
Snow Depth Not available.
UV 8 out of 12
Pollen 10.40 out of 12
Air Quality Not available.
Flu Activity Widespread
METAR KBOS 281754Z 12011KT 10SM FEW060 SCT200 09/03 A2971 RMK AO2 SLP058 T00940028 10106 20072 56021

More Conditions Fewer Conditions

Pressure 29.70 in
Visibility 10.0 miles
Clouds Few 6000 ft
Scattered Clouds 20000 ft
Dew Point 33 °F
Humidity 32%
Rainfall 0.09 in
Snow Depth Not available.
UV 8 out of 12
Pollen 10.40 out of 12
Air Quality Not available.
Flu Activity Widespread
METAR KBOS 281754Z 12011KT 10SM FEW060 SCT200 09/03 A2971 RMK AO2 SLP058 T00940028 10106 20072 56021

More Conditions Fewer Conditions

10-Day Weather Forecast

Almanac

Astronomy

Apr. 28, 2015 Rise Set
Actual Time
Civil Twilight
Nautical Twilight
Astronomical Twilight
Moon
Length of Visible Light
Length of Day
Tomorrow will be .
, % of the Moon is Illuminated

Today's Extremes

State Highs State Lows

Community

WunderPhotos

Upload Photos

1,817,725 photos uploaded!

WunderBlogs® & News

Nearby

Air Quality

  Air Quality AQ Index Pollutant
Not available.

Snow Depth

Station Depth Elevation

Earthquake Activity

City Distance Mag. Time & Date
Minimum magnitude displayed is 2.5.

Coastal Water Temperatures

Place Temperature

Stations

Nearby Weather Stations

Station Location Temp. Windchill Dew Point Humidity Wind Precip. Elev Updated Type